createdAt,value
2022-09-30T06:14:58.286Z,100.00
2022-09-30T06:24:58.706Z,100.00
2022-09-30T06:34:58.431Z,100.00
2022-09-30T06:44:58.419Z,100.00
2022-09-30T06:54:58.434Z,100.00
2022-09-30T07:04:58.618Z,100.00
2022-09-30T07:14:58.418Z,100.00
2022-09-30T07:24:58.360Z,100.00
2022-09-30T07:34:58.472Z,100.00
2022-09-30T07:44:58.554Z,100.00
2022-09-30T07:54:58.517Z,100.00
2022-09-30T08:04:58.473Z,100.00
2022-09-30T08:14:58.426Z,100.00
2022-09-30T08:24:58.673Z,100.00
2022-09-30T08:34:58.543Z,100.00
2022-09-30T08:44:58.858Z,100.00
2022-09-30T08:54:58.935Z,100.00
2022-09-30T09:04:58.842Z,100.00
2022-09-30T09:14:58.906Z,100.00
2022-09-30T09:24:58.995Z,94.04
2022-09-30T09:34:58.847Z,94.85
2022-09-30T09:44:59.065Z,92.95
2022-09-30T09:54:58.873Z,89.14
2022-09-30T10:04:58.901Z,89.64
2022-09-30T10:14:58.899Z,83.39
2022-09-30T10:24:58.837Z,82.44
2022-09-30T10:34:58.878Z,79.14
2022-09-30T10:44:58.930Z,76.18
2022-09-30T10:54:58.844Z,75.48
2022-09-30T11:04:59.069Z,72.48
2022-09-30T11:14:58.966Z,70.21
2022-09-30T11:24:59.008Z,71.37
2022-09-30T11:34:59.072Z,68.26
2022-09-30T11:44:58.982Z,69.23
2022-09-30T11:54:59.016Z,68.76
2022-09-30T12:04:58.970Z,70.70
2022-09-30T12:14:59.136Z,75.94
2022-09-30T12:24:59.014Z,73.80
2022-09-30T12:34:59.023Z,72.29
2022-09-30T12:44:59.199Z,66.65
2022-09-30T12:54:59.129Z,62.70
2022-09-30T13:04:59.203Z,59.95
2022-09-30T13:14:59.255Z,58.25
2022-09-30T13:24:59.278Z,58.73
2022-09-30T13:34:59.147Z,58.09
2022-09-30T13:44:59.128Z,58.37
2022-09-30T13:54:59.298Z,58.67
2022-09-30T14:04:59.192Z,58.56
2022-09-30T14:14:59.284Z,58.19
2022-09-30T14:24:59.190Z,58.25
2022-09-30T14:34:59.414Z,59.51
2022-09-30T14:44:59.197Z,58.66
2022-09-30T14:54:59.408Z,61.07
2022-09-30T15:05:01.599Z,62.27
2022-09-30T15:14:59.295Z,61.56
2022-09-30T15:24:59.320Z,61.52
2022-09-30T15:34:59.162Z,61.90
2022-09-30T15:44:59.295Z,62.46
2022-09-30T15:54:59.328Z,62.93
2022-09-30T16:04:59.349Z,63.38
2022-09-30T16:14:59.434Z,64.81
2022-09-30T16:24:59.250Z,65.76
2022-09-30T16:34:59.346Z,68.09
2022-09-30T16:44:59.364Z,72.57
2022-09-30T16:54:59.223Z,77.37
2022-09-30T17:04:59.422Z,81.42
2022-09-30T17:14:59.342Z,87.88
2022-09-30T17:24:59.510Z,94.53
2022-09-30T17:34:59.397Z,96.34
2022-09-30T17:44:59.415Z,100.00
2022-09-30T17:54:59.535Z,100.00
2022-09-30T18:04:59.340Z,100.00
2022-09-30T18:14:59.464Z,100.00
2022-09-30T18:24:59.384Z,100.00
2022-09-30T18:34:59.344Z,100.00
2022-09-30T18:44:59.540Z,100.00
2022-09-30T18:54:59.486Z,100.00
2022-09-30T19:05:00.088Z,100.00
2022-09-30T19:14:59.657Z,100.00
